Wales, AK

7:08 PM AKDT on August 28, 2014 (GMT -0800)
Tin City LRRS | Change Station
CLOSE
Current Station
Airport
Location: Tin City,
Elevation: 272 ft
Nearby Weather Stations

Elev 272 ft 65.56 °N, 167.92 °W | Updated 13 minutes ago

Mostly Cloudy
Mostly Cloudy
42 °F
Feels Like 33 °F
N
23
Wind Variable Wind from North

Today
High -- | Low -- °F
--% Chance of Precip.
Yesterday
High -- | Low -- °F
Precip. -- in
7:36 AM 10:46 PM
Waxing Crescent, 11% visible
Pressure 29.79 in
Visibility 10.0 miles
Clouds Mostly Cloudy 2600 ft
Windchill 33 °F
Dew Point 33 °F
Humidity 69%
Rainfall 0.10 in
Snow Depth Not available.
UV 1 out of 12
Pollen Not available.
Air Quality Not available.
Flu Activity Not available.
METAR PATC 290255Z AUTO 01020KT 10SM BKN026 06/01 A2978 RMK AO2 PK WND 01026/0159 SLP087 T00580006 52004

More Conditions Fewer Conditions

Pressure 29.79 in
Visibility 10.0 miles
Clouds Mostly Cloudy 2600 ft
Windchill 33 °F
Dew Point 33 °F
Humidity 69%
Rainfall 0.10 in
Snow Depth Not available.
UV 1 out of 12
Pollen Not available.
Air Quality Not available.
Flu Activity Not available.
METAR PATC 290255Z AUTO 01020KT 10SM BKN026 06/01 A2978 RMK AO2 PK WND 01026/0159 SLP087 T00580006 52004

More Conditions Fewer Conditions

10-Day Weather Forecast

Almanac

Astronomy

Aug. 28, 2014 Rise Set
Actual Time 7:36 AM AKDT 10:46 PM AKDT
Civil Twilight 6:37 AM AKDT 11:45 PM AKDT
Nautical Twilight 5:05 AM AKDT 1:14 AM AKDT
Astronomical Twilight Sun does not rise Sun does not rise
Moon 12:10 PM AKDT (8/28) 10:41 PM AKDT (8/28)
Length of Visible Light 17h 08m
Length of Day
15h 09m
Tomorrow will be 7m 2s shorter.
Waxing Crescent, 11% of the Moon is Illuminated
Today
Waxing Crescent
Sep 2
First Quarter
Sep 8
Full
Sep 15
Last Quarter
Sep 24
New

Today's Extremes

State Highs State Lows

Community

WunderPhotos

Upload Photos

1,748,141 photos uploaded!

Nearby

Snow Depth

Station Depth Elevation
Rocky Point 4 in 500 ft
Coldfoot 0 in 1040 ft
Atigun Pass 0 in 4800 ft
Susitna Valley High 2 in 375 ft
Little Chena Ridge 1 in 2000 ft

Earthquake Activity

City Distance Mag. Time & Date
No recent earthquake activity has been reported nearby.
Minimum magnitude displayed is 2.5.

Coastal Water Temperatures

Place Temperature
No Stations Reporting

Nearby Weather Stations